Time;durP1;ratioP1;P1;durP2;ratioP2;P2;SDS_P1;SDS_P2;PMS_P1;PMS_P2;Temp;Humidity;BMP_temperature;BMP_pressure;BME280_temperature;BME280_humidity;BME280_pressure;Samples;Min_cycle;Max_cycle;Signal;HPM_P1;HPM_P2
2023/03/30 00:00:22;;;;;;;5.60;2.83;;;;;;;;;;5108485;28;20043;-74
2023/03/30 00:02:52;;;;;;;10.45;4.90;;;;;;;;;;5107147;28;20062;-75
2023/03/30 00:05:25;;;;;;;9.90;4.13;;;;;;;;;;5107615;28;20051;-74
2023/03/30 00:07:56;;;;;;;9.43;4.07;;;;;;;;;;5094783;28;20051;-76
2023/03/30 00:10:28;;;;;;;5.53;3.63;;;;;;;;;;5100390;28;20044;-76
2023/03/30 00:12:58;;;;;;;4.00;2.92;;;;;;;;;;5107398;28;20058;-76
2023/03/30 00:15:29;;;;;;;4.78;2.90;;;;;;;;;;5105246;28;20051;-75
2023/03/30 00:18:00;;;;;;;4.30;2.20;;;;;;;;;;5106987;28;20047;-75
2023/03/30 00:20:33;;;;;;;10.27;2.88;;;;;;;;;;5107197;28;20051;-76
2023/03/30 00:23:04;;;;;;;6.57;2.45;;;;;;;;;;5107448;28;20051;-74
2023/03/30 00:25:35;;;;;;;3.83;2.63;;;;;;;;;;5109026;28;20824;-76
2023/03/30 00:28:06;;;;;;;4.78;3.08;;;;;;;;;;5107751;28;20047;-76
2023/03/30 00:30:37;;;;;;;4.03;2.53;;;;;;;;;;5071660;28;20051;-77
2023/03/30 00:33:07;;;;;;;4.75;2.70;;;;;;;;;;5107787;28;20054;-76
2023/03/30 00:35:38;;;;;;;4.28;2.55;;;;;;;;;;5107508;28;20040;-75
2023/03/30 00:38:10;;;;;;;4.43;2.83;;;;;;;;;;5088880;28;20051;-75
2023/03/30 00:40:41;;;;;;;6.43;3.60;;;;;;;;;;5088415;28;20047;-74
2023/03/30 00:43:13;;;;;;;6.95;3.67;;;;;;;;;;5106838;28;20498;-77
2023/03/30 00:45:44;;;;;;;5.07;2.95;;;;;;;;;;5107263;28;20040;-75
2023/03/30 00:48:39;;;;;;;5.55;3.00;;;;;;;;;;5105859;28;20059;-76
2023/03/30 00:51:12;;;;;;;4.15;2.78;;;;;;;;;;5107110;28;20054;-75
2023/03/30 00:53:48;;;;;;;5.13;3.40;;;;;;;;;;5107139;28;20051;-75
2023/03/30 00:56:25;;;;;;;6.43;2.97;;;;;;;;;;5107342;28;20517;-74
2023/03/30 00:58:57;;;;;;;5.43;3.00;;;;;;;;;;5106971;28;20043;-75
2023/03/30 01:01:30;;;;;;;4.22;3.13;;;;;;;;;;5106113;28;20418;-75
2023/03/30 01:04:02;;;;;;;6.60;3.10;;;;;;;;;;5106808;28;20545;-74
2023/03/30 01:06:38;;;;;;;8.55;2.97;;;;;;;;;;5106643;28;20047;-75
2023/03/30 01:09:11;;;;;;;4.22;2.38;;;;;;;;;;5107233;28;20102;-76
2023/03/30 01:11:45;;;;;;;8.60;2.78;;;;;;;;;;5086800;28;20525;-75
2023/03/30 01:14:16;;;;;;;4.53;2.17;;;;;;;;;;5106487;28;20058;-75
2023/03/30 01:17:15;;;;;;;9.38;2.80;;;;;;;;;;5087777;28;20614;-75
2023/03/30 01:20:17;;;;;;;3.90;2.70;;;;;;;;;;5104869;28;20040;-75
2023/03/30 01:23:17;;;;;;;7.63;2.70;;;;;;;;;;5106391;28;20044;-75
2023/03/30 01:25:48;;;;;;;8.90;3.08;;;;;;;;;;5107325;28;20490;-75
2023/03/30 01:28:40;;;;;;;6.65;2.75;;;;;;;;;;5106435;28;20494;-75
2023/03/30 01:31:44;;;;;;;5.60;2.85;;;;;;;;;;5106700;28;20047;-74
2023/03/30 01:34:47;;;;;;;8.32;2.90;;;;;;;;;;5107103;28;20051;-75
2023/03/30 01:37:56;;;;;;;7.57;3.08;;;;;;;;;;5088981;28;20056;-75
2023/03/30 01:40:40;;;;;;;7.88;2.90;;;;;;;;;;5073856;28;20052;-74
2023/03/30 01:43:42;;;;;;;4.93;2.60;;;;;;;;;;5091235;28;20066;-75
2023/03/30 01:46:29;;;;;;;5.15;2.83;;;;;;;;;;5107690;28;20047;-76
2023/03/30 01:49:17;;;;;;;6.00;2.55;;;;;;;;;;5089768;28;20058;-76
2023/03/30 01:52:13;;;;;;;7.45;2.78;;;;;;;;;;5107122;28;20054;-76
2023/03/30 01:55:08;;;;;;;5.35;2.42;;;;;;;;;;5095212;28;20059;-77
2023/03/30 01:57:51;;;;;;;5.05;2.70;;;;;;;;;;5111402;28;20529;-76
2023/03/30 02:00:24;;;;;;;6.38;2.50;;;;;;;;;;5111445;28;20050;-75
2023/03/30 02:03:15;;;;;;;7.20;2.55;;;;;;;;;;5112113;28;20050;-77
2023/03/30 02:05:51;;;;;;;7.70;2.63;;;;;;;;;;5112485;28;20044;-75
2023/03/30 02:08:25;;;;;;;7.35;2.58;;;;;;;;;;5113088;28;20063;-75
2023/03/30 02:10:57;;;;;;;;;;;;;;;;;;5093742;28;20055;-75
2023/03/30 02:13:31;;;;;;;7.72;2.72;;;;;;;;;;5109981;28;19928;-74
2023/03/30 02:16:23;;;;;;;4.78;3.15;;;;;;;;;;5111399;28;20035;-77
2023/03/30 02:18:56;;;;;;;4.80;2.60;;;;;;;;;;5110993;28;20501;-74
2023/03/30 02:21:28;;;;;;;4.55;2.20;;;;;;;;;;5110862;28;20443;-76
2023/03/30 02:24:02;;;;;;;5.28;2.30;;;;;;;;;;5110862;28;20047;-76
2023/03/30 02:26:34;;;;;;;6.50;1.98;;;;;;;;;;5092491;28;20047;-77
2023/03/30 02:29:04;;;;;;;4.82;1.75;;;;;;;;;;5091825;28;20047;-77
2023/03/30 02:31:37;;;;;;;4.80;1.45;;;;;;;;;;5110518;28;20066;-76
2023/03/30 02:34:17;;;;;;;2.72;1.65;;;;;;;;;;5110648;28;20521;-74
2023/03/30 02:36:53;;;;;;;2.03;0.95;;;;;;;;;;5091590;28;20052;-76
2023/03/30 02:39:38;;;;;;;3.72;1.00;;;;;;;;;;5110293;28;20047;-75
2023/03/30 02:42:30;;;;;;;7.63;0.90;;;;;;;;;;5091309;28;20052;-78
2023/03/30 02:45:30;;;;;;;3.97;0.80;;;;;;;;;;5092290;28;20051;-75
2023/03/30 02:48:20;;;;;;;1.63;0.43;;;;;;;;;;5110329;28;20050;-76
2023/03/30 02:51:09;;;;;;;4.60;0.40;;;;;;;;;;5092111;28;20055;-77
2023/03/30 02:54:12;;;;;;;1.42;0.40;;;;;;;;;;5091688;28;20052;-78
2023/03/30 02:57:27;;;;;;;2.95;0.52;;;;;;;;;;5028187;28;20053;-75
2023/03/30 03:00:29;;;;;;;0.52;0.40;;;;;;;;;;5041789;28;20555;-77
2023/03/30 03:03:09;;;;;;;2.15;0.20;;;;;;;;;;5074118;28;20055;-76
2023/03/30 03:05:42;;;;;;;0.75;0.38;;;;;;;;;;5090810;28;20054;-76
2023/03/30 03:08:17;;;;;;;3.53;0.32;;;;;;;;;;5090782;28;20430;-76
2023/03/30 03:10:50;;;;;;;0.30;0.30;;;;;;;;;;5090678;28;20055;-76
2023/03/30 03:13:23;;;;;;;3.20;1.33;;;;;;;;;;5091005;28;20058;-80
2023/03/30 03:15:55;;;;;;;1.30;0.45;;;;;;;;;;5091401;28;20047;-78
2023/03/30 03:18:31;;;;;;;1.65;0.50;;;;;;;;;;5091405;28;20052;-77
2023/03/30 03:21:02;;;;;;;2.40;0.80;;;;;;;;;;5091717;28;20106;-76
2023/03/30 03:23:36;;;;;;;1.55;0.50;;;;;;;;;;5093025;28;20044;-76
2023/03/30 03:26:08;;;;;;;1.75;0.47;;;;;;;;;;5091088;28;20052;-78
2023/03/30 03:28:39;;;;;;;2.47;0.70;;;;;;;;;;5091704;28;20043;-74
2023/03/30 03:31:08;;;;;;;4.25;0.45;;;;;;;;;;5091167;28;20090;-78
2023/03/30 03:33:40;;;;;;;4.13;0.50;;;;;;;;;;5109123;28;20059;-78
2023/03/30 03:36:25;;;;;;;4.43;0.35;;;;;;;;;;5090323;28;20498;-77
2023/03/30 03:38:56;;;;;;;0.73;0.25;;;;;;;;;;5108752;28;20430;-77
2023/03/30 03:41:28;;;;;;;0.60;0.32;;;;;;;;;;5090542;28;20055;-75
2023/03/30 03:43:59;;;;;;;1.55;0.30;;;;;;;;;;5089766;28;20050;-75
2023/03/30 03:46:29;;;;;;;0.50;0.35;;;;;;;;;;5108461;28;20059;-76
2023/03/30 03:49:00;;;;;;;3.88;0.57;;;;;;;;;;5089349;28;20054;-77
2023/03/30 03:51:31;;;;;;;1.17;0.50;;;;;;;;;;5089743;28;20056;-76
2023/03/30 03:54:02;;;;;;;1.65;0.43;;;;;;;;;;5108526;28;20059;-76
2023/03/30 03:56:32;;;;;;;1.90;0.30;;;;;;;;;;5089592;28;20062;-78
2023/03/30 03:59:03;;;;;;;1.02;0.55;;;;;;;;;;5108125;28;20056;-73
2023/03/30 04:01:33;;;;;;;1.52;0.35;;;;;;;;;;5089770;28;20514;-79
2023/03/30 04:04:03;;;;;;;1.95;0.30;;;;;;;;;;5089378;28;20522;-81
2023/03/30 04:06:34;;;;;;;1.02;0.43;;;;;;;;;;5091117;28;20050;-76
2023/03/30 04:09:06;;;;;;;0.70;0.25;;;;;;;;;;5089413;28;20079;-77
2023/03/30 04:11:58;;;;;;;1.35;0.32;;;;;;;;;;5108046;28;20059;-73
2023/03/30 04:14:51;;;;;;;1.17;0.47;;;;;;;;;;5069982;28;20063;-79
2023/03/30 04:17:39;;;;;;;1.45;0.47;;;;;;;;;;5114880;28;20051;-75
2023/03/30 04:20:23;;;;;;;2.28;0.30;;;;;;;;;;5088472;28;20110;-77
2023/03/30 04:23:15;;;;;;;2.28;0.43;;;;;;;;;;5065660;28;20063;-79
2023/03/30 04:26:27;;;;;;;1.35;0.50;;;;;;;;;;5044860;28;20057;-76
2023/03/30 04:29:09;;;;;;;1.25;0.20;;;;;;;;;;5027798;28;20057;-79
2023/03/30 04:32:19;;;;;;;3.47;0.60;;;;;;;;;;5000707;28;20054;-78
2023/03/30 04:35:02;;;;;;;2.25;0.50;;;;;;;;;;5082771;28;20055;-78
2023/03/30 04:37:43;;;;;;;0.55;0.20;;;;;;;;;;5089028;28;20441;-76
2023/03/30 04:40:42;;;;;;;4.38;0.50;;;;;;;;;;5103365;28;20048;-79
2023/03/30 04:43:24;;;;;;;1.05;0.20;;;;;;;;;;5088506;28;20059;-77
2023/03/30 04:46:30;;;;;;;1.13;0.30;;;;;;;;;;5065952;28;20052;-80
2023/03/30 04:49:30;;;;;;;0.38;0.20;;;;;;;;;;5089129;28;20058;-80
2023/03/30 04:52:22;;;;;;;3.05;0.30;;;;;;;;;;5107090;28;20052;-79
2023/03/30 04:55:24;;;;;;;0.45;0.10;;;;;;;;;;5088400;28;20051;-78
2023/03/30 04:58:10;;;;;;;0.30;0.30;;;;;;;;;;5089259;28;20052;-81
2023/03/30 05:00:55;;;;;;;0.95;0.30;;;;;;;;;;5088907;28;20454;-80
2023/03/30 05:03:52;;;;;;;2.38;0.43;;;;;;;;;;5095328;28;20493;-79
2023/03/30 05:06:48;;;;;;;1.35;0.40;;;;;;;;;;5103970;28;20058;-78
2023/03/30 05:09:40;;;;;;;1.85;0.50;;;;;;;;;;5088345;28;20054;-78
2023/03/30 05:12:15;;;;;;;0.38;0.30;;;;;;;;;;5114098;28;20059;-78
2023/03/30 05:15:22;;;;;;;1.00;0.40;;;;;;;;;;5044766;28;20052;-79
2023/03/30 05:18:12;;;;;;;3.40;0.40;;;;;;;;;;5093418;28;20529;-79
2023/03/30 05:20:42;;;;;;;0.22;0.22;;;;;;;;;;5107123;28;20918;-76
2023/03/30 05:23:25;;;;;;;0.82;0.40;;;;;;;;;;5073750;28;20055;-79
2023/03/30 05:26:14;;;;;;;3.08;0.55;;;;;;;;;;5108746;28;20514;-79
2023/03/30 05:29:11;;;;;;;4.03;0.70;;;;;;;;;;5103425;28;20055;-80
2023/03/30 05:31:59;;;;;;;1.33;0.60;;;;;;;;;;5114188;28;20506;-75
2023/03/30 05:34:47;;;;;;;1.45;0.80;;;;;;;;;;5118550;28;20055;-76
2023/03/30 05:37:40;;;;;;;1.88;0.30;;;;;;;;;;5093776;28;20514;-79
2023/03/30 05:40:41;;;;;;;1.98;0.50;;;;;;;;;;5093131;28;20058;-79
2023/03/30 05:43:35;;;;;;;3.08;0.60;;;;;;;;;;5093337;28;20051;-81
2023/03/30 05:46:30;;;;;;;0.52;0.43;;;;;;;;;;5092941;28;20436;-78
2023/03/30 05:49:31;;;;;;;1.23;0.40;;;;;;;;;;5110860;28;20975;-77
2023/03/30 05:52:24;;;;;;;3.50;0.40;;;;;;;;;;5098727;28;20055;-76
2023/03/30 05:55:04;;;;;;;2.30;0.50;;;;;;;;;;5092428;28;20173;-77
2023/03/30 05:58:04;;;;;;;2.67;0.50;;;;;;;;;;5092907;28;20055;-75
2023/03/30 06:01:06;;;;;;;1.42;0.70;;;;;;;;;;5093909;28;20048;-75
2023/03/30 06:03:40;;;;;;;0.88;0.55;;;;;;;;;;5093201;28;20055;-78
2023/03/30 06:06:12;;;;;;;1.15;0.45;;;;;;;;;;5093384;28;20058;-74
2023/03/30 06:08:46;;;;;;;2.35;0.77;;;;;;;;;;5092804;28;20387;-81
2023/03/30 06:11:21;;;;;;;2.85;0.90;;;;;;;;;;5092650;28;20083;-78
2023/03/30 06:14:03;;;;;;;2.95;0.77;;;;;;;;;;5092840;28;20552;-77
2023/03/30 06:16:35;;;;;;;3.70;1.00;;;;;;;;;;5092500;28;20074;-79
2023/03/30 06:19:07;;;;;;;1.65;0.77;;;;;;;;;;5092293;28;20062;-76
2023/03/30 06:21:38;;;;;;;0.90;0.57;;;;;;;;;;5092773;28;21048;-74
2023/03/30 06:24:31;;;;;;;1.42;0.73;;;;;;;;;;5110596;28;20056;-76
2023/03/30 06:27:02;;;;;;;1.70;0.80;;;;;;;;;;5092857;28;20059;-74
2023/03/30 06:29:32;;;;;;;3.13;0.50;;;;;;;;;;5094696;28;20050;-77
2023/03/30 06:32:03;;;;;;;2.22;0.52;;;;;;;;;;5111014;28;20051;-76
2023/03/30 06:34:53;;;;;;;2.33;0.60;;;;;;;;;;5092588;28;20059;-79
2023/03/30 06:37:26;;;;;;;1.90;0.70;;;;;;;;;;5092273;28;20058;-75
2023/03/30 06:39:56;;;;;;;2.33;0.60;;;;;;;;;;5092494;28;20052;-77
2023/03/30 06:42:26;;;;;;;1.23;0.60;;;;;;;;;;5091324;28;20055;-77
2023/03/30 06:45:12;;;;;;;1.70;0.50;;;;;;;;;;5092146;28;20052;-75
2023/03/30 06:47:43;;;;;;;4.10;0.80;;;;;;;;;;5110757;28;20509;-79
2023/03/30 06:50:15;;;;;;;1.30;0.40;;;;;;;;;;5092651;28;20055;-77
2023/03/30 06:53:08;;;;;;;7.30;0.80;;;;;;;;;;5093112;28;20062;-76
2023/03/30 06:55:42;;;;;;;3.58;0.50;;;;;;;;;;5093151;28;20056;-77
2023/03/30 06:58:19;;;;;;;4.10;0.63;;;;;;;;;;5092551;28;20051;-78
2023/03/30 07:00:51;;;;;;;4.07;0.90;;;;;;;;;;5091883;28;20062;-77
2023/03/30 07:03:40;;;;;;;3.50;0.80;;;;;;;;;;5113732;28;20514;-79
2023/03/30 07:06:21;;;;;;;4.07;0.80;;;;;;;;;;5092230;28;20048;-75
2023/03/30 07:08:55;;;;;;;2.50;0.95;;;;;;;;;;5091674;28;20039;-75
2023/03/30 07:11:26;;;;;;;3.38;1.20;;;;;;;;;;5091964;28;20047;-78
2023/03/30 07:13:57;;;;;;;3.45;1.20;;;;;;;;;;5090900;28;20074;-75
2023/03/30 07:16:28;;;;;;;2.67;0.82;;;;;;;;;;5110233;28;20398;-77
2023/03/30 07:18:59;;;;;;;3.83;1.02;;;;;;;;;;5109212;28;20047;-78
2023/03/30 07:21:31;;;;;;;1.67;0.88;;;;;;;;;;5109539;28;20047;-78
2023/03/30 07:24:02;;;;;;;3.85;1.00;;;;;;;;;;5090971;28;20063;-75
2023/03/30 07:26:36;;;;;;;1.65;0.80;;;;;;;;;;5090652;28;20062;-80
2023/03/30 07:29:09;;;;;;;2.38;0.73;;;;;;;;;;5090123;28;20047;-78
2023/03/30 07:31:43;;;;;;;1.42;0.60;;;;;;;;;;5090124;28;20541;-75
2023/03/30 07:34:16;;;;;;;2.17;0.90;;;;;;;;;;5089974;28;20052;-80
2023/03/30 07:36:53;;;;;;;3.38;1.00;;;;;;;;;;5089971;28;20055;-76
2023/03/30 07:39:28;;;;;;;1.92;1.10;;;;;;;;;;5089704;28;20048;-74
2023/03/30 07:42:04;;;;;;;4.28;0.85;;;;;;;;;;5089775;28;20066;-79
2023/03/30 07:44:34;;;;;;;4.05;0.85;;;;;;;;;;5108324;28;20040;-79
2023/03/30 07:47:08;;;;;;;2.22;0.85;;;;;;;;;;5090175;28;20148;-77
2023/03/30 07:49:41;;;;;;;6.60;1.10;;;;;;;;;;5089336;28;20052;-75
2023/03/30 07:52:11;;;;;;;9.02;0.98;;;;;;;;;;5090412;28;20044;-79
2023/03/30 07:54:48;;;;;;;2.97;0.80;;;;;;;;;;5088346;28;20616;-79
2023/03/30 07:57:24;;;;;;;9.57;1.00;;;;;;;;;;5090306;28;20052;-80
2023/03/30 07:59:56;;;;;;;2.85;0.77;;;;;;;;;;5109125;28;20039;-78
2023/03/30 08:03:04;;;;;;;2.35;0.80;;;;;;;;;;5107310;28;20055;-78
2023/03/30 08:05:35;;;;;;;6.07;1.45;;;;;;;;;;5090078;28;20051;-80
2023/03/30 08:08:15;;;;;;;5.07;0.80;;;;;;;;;;5089913;28;20062;-80
2023/03/30 08:10:46;;;;;;;2.10;0.80;;;;;;;;;;5108644;28;20048;-77
2023/03/30 08:13:16;;;;;;;1.23;0.60;;;;;;;;;;5089406;28;20059;-76
2023/03/30 08:15:51;;;;;;;2.45;1.00;;;;;;;;;;5090007;28;20043;-79
2023/03/30 08:18:21;;;;;;;5.00;1.30;;;;;;;;;;5089671;28;20060;-77
2023/03/30 08:20:54;;;;;;;4.00;0.95;;;;;;;;;;5109682;28;20503;-76
2023/03/30 08:23:24;;;;;;;5.45;0.80;;;;;;;;;;5090344;28;20052;-75
2023/03/30 08:25:59;;;;;;;6.88;1.10;;;;;;;;;;5109671;28;20055;-76
2023/03/30 08:28:29;;;;;;;7.03;0.90;;;;;;;;;;5109304;28;20043;-79
2023/03/30 08:31:09;;;;;;;2.78;0.80;;;;;;;;;;5109021;28;20044;-80
2023/03/30 08:33:40;;;;;;;5.13;0.90;;;;;;;;;;5108695;28;20050;-77
2023/03/30 08:36:14;;;;;;;5.50;0.93;;;;;;;;;;5109174;28;20051;-79
2023/03/30 08:38:45;;;;;;;5.03;0.90;;;;;;;;;;5108479;28;20054;-79
2023/03/30 08:41:51;;;;;;;6.22;1.08;;;;;;;;;;5108554;28;20063;-75
2023/03/30 08:44:40;;;;;;;6.03;0.90;;;;;;;;;;5067761;28;20538;-79
2023/03/30 08:47:15;;;;;;;3.40;0.90;;;;;;;;;;5108297;28;20048;-79
2023/03/30 08:50:07;;;;;;;5.53;0.95;;;;;;;;;;5108754;28;20044;-77
2023/03/30 08:52:40;;;;;;;4.43;0.60;;;;;;;;;;5108508;28;20056;-75
2023/03/30 08:55:36;;;;;;;2.28;1.00;;;;;;;;;;5090434;28;20521;-79
2023/03/30 08:58:45;;;;;;;0.93;0.70;;;;;;;;;;5108440;28;20506;-77
2023/03/30 09:01:34;;;;;;;1.83;0.80;;;;;;;;;;5107847;28;20043;-76
2023/03/30 09:04:37;;;;;;;2.45;0.90;;;;;;;;;;5090361;28;20047;-77
2023/03/30 09:07:07;;;;;;;5.18;1.00;;;;;;;;;;5108056;28;20387;-80
2023/03/30 09:09:44;;;;;;;0.95;0.63;;;;;;;;;;5108446;28;20414;-81
2023/03/30 09:12:17;;;;;;;5.90;1.17;;;;;;;;;;5107634;28;20440;-79
2023/03/30 09:15:12;;;;;;;4.97;1.25;;;;;;;;;;5107517;28;20052;-78
2023/03/30 09:17:54;;;;;;;2.70;0.70;;;;;;;;;;5089143;28;20044;-76
2023/03/30 09:20:30;;;;;;;1.73;0.65;;;;;;;;;;5107888;28;20059;-82
2023/03/30 09:23:02;;;;;;;2.38;0.90;;;;;;;;;;5107562;28;20057;-77
2023/03/30 09:25:45;;;;;;;2.10;1.30;;;;;;;;;;5089294;28;20063;-77
2023/03/30 09:28:41;;;;;;;5.10;0.75;;;;;;;;;;5107289;28;21101;-80
2023/03/30 09:31:22;;;;;;;3.05;1.15;;;;;;;;;;5108162;28;20422;-76
2023/03/30 09:34:06;;;;;;;3.38;1.77;;;;;;;;;;5089171;28;20418;-78
2023/03/30 09:36:41;;;;;;;7.00;1.30;;;;;;;;;;5107894;28;20046;-76
2023/03/30 09:39:19;;;;;;;3.78;0.60;;;;;;;;;;5108019;28;20047;-79
2023/03/30 09:42:01;;;;;;;3.00;0.75;;;;;;;;;;5107947;28;20039;-79
2023/03/30 09:44:40;;;;;;;7.68;1.25;;;;;;;;;;5107664;28;20210;-78
2023/03/30 09:47:25;;;;;;;2.75;0.75;;;;;;;;;;5108200;28;20059;-76
2023/03/30 09:49:57;;;;;;;5.30;1.05;;;;;;;;;;5108361;28;20036;-79
2023/03/30 09:52:30;;;;;;;1.88;0.80;;;;;;;;;;5107549;28;20490;-78
2023/03/30 09:55:19;;;;;;;4.38;1.00;;;;;;;;;;5107357;28;20058;-78
2023/03/30 09:57:51;;;;;;;4.80;1.33;;;;;;;;;;5106795;28;20059;-77
2023/03/30 10:00:28;;;;;;;4.45;1.33;;;;;;;;;;5106748;28;20047;-79
2023/03/30 10:03:05;;;;;;;4.45;1.30;;;;;;;;;;5088475;28;20533;-78
2023/03/30 10:05:37;;;;;;;9.63;2.83;;;;;;;;;;5106975;28;20047;-79
2023/03/30 10:08:21;;;;;;;6.40;1.10;;;;;;;;;;5106979;28;20051;-77
2023/03/30 10:10:55;;;;;;;4.50;1.00;;;;;;;;;;5106682;28;20043;-79
2023/03/30 10:13:38;;;;;;;6.38;1.02;;;;;;;;;;5107336;28;20052;-80
2023/03/30 10:16:20;;;;;;;4.22;1.55;;;;;;;;;;5106671;28;20050;-78
2023/03/30 10:18:56;;;;;;;2.65;1.42;;;;;;;;;;5110775;28;20045;-78
2023/03/30 10:21:36;;;;;;;5.13;1.10;;;;;;;;;;5110675;28;20043;-76
2023/03/30 10:24:23;;;;;;;2.80;1.10;;;;;;;;;;5111011;28;20061;-79
2023/03/30 10:27:09;;;;;;;2.95;1.00;;;;;;;;;;5111102;28;20043;-79
2023/03/30 10:29:45;;;;;;;4.00;1.00;;;;;;;;;;5110732;28;20051;-79
2023/03/30 10:32:35;;;;;;;8.70;1.00;;;;;;;;;;5110837;28;20510;-77
2023/03/30 10:35:09;;;;;;;4.05;1.08;;;;;;;;;;5110199;28;20379;-80
2023/03/30 10:37:45;;;;;;;12.90;1.50;;;;;;;;;;5110415;28;20651;-77
2023/03/30 10:40:39;;;;;;;8.68;1.23;;;;;;;;;;5110438;28;20056;-80
2023/03/30 10:43:17;;;;;;;5.88;2.42;;;;;;;;;;5089480;28;20620;-79
2023/03/30 10:45:51;;;;;;;11.43;5.00;;;;;;;;;;5089821;28;20040;-80
2023/03/30 10:49:01;;;;;;;12.90;2.15;;;;;;;;;;5089258;28;20044;-78
2023/03/30 10:52:10;;;;;;;5.40;1.20;;;;;;;;;;5089537;28;20044;-79
2023/03/30 10:55:07;;;;;;;12.25;1.70;;;;;;;;;;5089218;28;20051;-80
2023/03/30 10:58:01;;;;;;;4.72;1.05;;;;;;;;;;5089374;28;20055;-80
2023/03/30 11:00:55;;;;;;;6.05;1.70;;;;;;;;;;5080216;28;20048;-75
2023/03/30 11:03:31;;;;;;;3.28;0.88;;;;;;;;;;5088381;28;20628;-81
2023/03/30 11:06:30;;;;;;;5.75;1.10;;;;;;;;;;5089320;28;20052;-77
2023/03/30 11:09:05;;;;;;;5.47;0.88;;;;;;;;;;5083431;28;20106;-80
2023/03/30 11:11:41;;;;;;;;;;;;;;;;;;5090792;28;20044;-81
2023/03/30 11:14:21;;;;;;;4.40;1.17;;;;;;;;;;5090260;28;19927;-75
2023/03/30 11:17:00;;;;;;;4.40;1.05;;;;;;;;;;5089460;28;20048;-79
2023/03/30 11:19:43;;;;;;;9.50;1.42;;;;;;;;;;5089112;28;20415;-76
2023/03/30 11:22:22;;;;;;;4.53;0.98;;;;;;;;;;5090960;28;20048;-77
2023/03/30 11:24:55;;;;;;;4.18;1.00;;;;;;;;;;5072496;28;20522;-82
2023/03/30 11:27:35;;;;;;;5.07;0.90;;;;;;;;;;5072049;28;20052;-76
2023/03/30 11:30:25;;;;;;;3.25;1.15;;;;;;;;;;5089253;28;20411;-79
2023/03/30 11:33:20;;;;;;;5.70;1.25;;;;;;;;;;5088392;28;20044;-76
2023/03/30 11:35:58;;;;;;;2.28;1.05;;;;;;;;;;5088053;28;20044;-78
2023/03/30 11:39:06;;;;;;;7.70;1.30;;;;;;;;;;5088041;28;20063;-78
2023/03/30 11:42:11;;;;;;;5.25;1.90;;;;;;;;;;5007769;28;20053;-80
2023/03/30 11:44:42;;;;;;;4.43;0.95;;;;;;;;;;5088906;28;20048;-76
2023/03/30 11:47:30;;;;;;;6.35;1.40;;;;;;;;;;5088366;28;20048;-75
2023/03/30 11:50:33;;;;;;;5.60;1.13;;;;;;;;;;5088296;28;20407;-79
2023/03/30 11:53:17;;;;;;;2.00;0.80;;;;;;;;;;5071208;28;20406;-77
2023/03/30 11:56:11;;;;;;;3.28;1.27;;;;;;;;;;5088368;28;20067;-78
2023/03/30 11:59:16;;;;;;;6.45;1.10;;;;;;;;;;5087664;28;20055;-79
2023/03/30 12:01:55;;;;;;;3.53;1.10;;;;;;;;;;5088176;28;20498;-76
2023/03/30 12:04:31;;;;;;;3.90;1.00;;;;;;;;;;5088365;28;20051;-79
2023/03/30 12:07:08;;;;;;;4.45;0.82;;;;;;;;;;5070669;28;20057;-77
2023/03/30 12:09:49;;;;;;;6.50;1.00;;;;;;;;;;5088303;28;20055;-80
2023/03/30 12:12:31;;;;;;;;;;;;;;;;;;5054237;28;20567;-78
2023/03/30 12:15:21;;;;;;;1.52;0.60;;;;;;;;;;5087769;28;19950;-77
2023/03/30 12:18:06;;;;;;;2.97;0.50;;;;;;;;;;5087317;28;20058;-75
2023/03/30 12:21:18;;;;;;;2.70;0.90;;;;;;;;;;5087396;28;20507;-80
2023/03/30 12:24:17;;;;;;;3.15;0.80;;;;;;;;;;5078858;28;20533;-79
2023/03/30 12:26:49;;;;;;;4.75;0.63;;;;;;;;;;5087274;28;20696;-79
2023/03/30 12:29:50;;;;;;;5.60;3.30;;;;;;;;;;5069061;28;20422;-79
2023/03/30 12:32:29;;;;;;;2.88;0.65;;;;;;;;;;5070193;28;20056;-78
2023/03/30 12:34:59;;;;;;;2.60;0.90;;;;;;;;;;5087632;28;20384;-77
2023/03/30 12:37:40;;;;;;;12.43;2.17;;;;;;;;;;5088299;28;20051;-80
2023/03/30 12:40:24;;;;;;;2.20;0.75;;;;;;;;;;5086961;28;20415;-77
2023/03/30 12:43:08;;;;;;;6.35;0.77;;;;;;;;;;5087488;28;20052;-78
2023/03/30 12:46:27;;;;;;;1.55;0.85;;;;;;;;;;5087317;28;20048;-76
2023/03/30 12:49:11;;;;;;;5.07;1.17;;;;;;;;;;5024304;28;20527;-80
2023/03/30 12:51:54;;;;;;;6.63;1.23;;;;;;;;;;5024325;28;20052;-76
2023/03/30 12:54:49;;;;;;;4.95;1.27;;;;;;;;;;5069152;28;20056;-76
2023/03/30 12:57:46;;;;;;;3.80;1.30;;;;;;;;;;5068574;28;20419;-79
2023/03/30 13:00:41;;;;;;;2.25;1.10;;;;;;;;;;5077693;28;20541;-77
2023/03/30 13:03:41;;;;;;;3.60;1.23;;;;;;;;;;5086946;28;20495;-80
2023/03/30 13:06:28;;;;;;;7.47;2.10;;;;;;;;;;5088999;28;20058;-79
2023/03/30 13:09:20;;;;;;;4.47;1.27;;;;;;;;;;5086903;28;20487;-79
2023/03/30 13:11:53;;;;;;;3.42;1.65;;;;;;;;;;5086953;28;20051;-76
2023/03/30 13:14:26;;;;;;;3.75;1.58;;;;;;;;;;5069141;28;20048;-77
2023/03/30 13:17:01;;;;;;;7.00;2.15;;;;;;;;;;5086612;28;20506;-79
2023/03/30 13:19:32;;;;;;;5.35;1.38;;;;;;;;;;5086319;28;20048;-76
2023/03/30 13:22:10;;;;;;;6.18;1.92;;;;;;;;;;5086889;28;20059;-78
2023/03/30 13:24:41;;;;;;;4.38;1.70;;;;;;;;;;5086531;28;20509;-78
2023/03/30 13:27:11;;;;;;;3.13;1.67;;;;;;;;;;5086405;28;20842;-77
2023/03/30 13:29:49;;;;;;;5.90;1.80;;;;;;;;;;5086961;28;20425;-76
2023/03/30 13:32:45;;;;;;;5.22;2.65;;;;;;;;;;5069780;28;20044;-79
2023/03/30 13:35:40;;;;;;;5.05;1.77;;;;;;;;;;5086825;28;20052;-78
2023/03/30 13:38:20;;;;;;;8.13;1.77;;;;;;;;;;5086069;28;20081;-75
2023/03/30 13:41:21;;;;;;;5.88;1.80;;;;;;;;;;5086645;28;20055;-78
2023/03/30 13:44:04;;;;;;;8.38;1.83;;;;;;;;;;5086352;28;20526;-76
2023/03/30 13:46:52;;;;;;;3.35;1.80;;;;;;;;;;5086602;28;20047;-77
2023/03/30 13:49:26;;;;;;;7.75;1.73;;;;;;;;;;5086257;28;20542;-77
2023/03/30 13:52:10;;;;;;;4.45;1.48;;;;;;;;;;5086640;28;20048;-80
2023/03/30 13:54:41;;;;;;;4.68;1.40;;;;;;;;;;5072077;28;20058;-77
2023/03/30 13:57:21;;;;;;;3.90;1.80;;;;;;;;;;5090686;28;20055;-80
2023/03/30 14:00:03;;;;;;;8.10;2.20;;;;;;;;;;5090971;28;20051;-77
2023/03/30 14:02:39;;;;;;;9.52;3.05;;;;;;;;;;5093643;28;20048;-77
2023/03/30 14:05:25;;;;;;;5.43;1.50;;;;;;;;;;5090718;28;20051;-78
2023/03/30 14:07:58;;;;;;;3.47;1.73;;;;;;;;;;5090176;28;20055;-77
2023/03/30 14:10:29;;;;;;;2.50;1.75;;;;;;;;;;5071724;28;20067;-79
2023/03/30 14:12:59;;;;;;;8.18;2.38;;;;;;;;;;5089808;28;20047;-79
2023/03/30 14:15:37;;;;;;;4.15;1.33;;;;;;;;;;5089867;28;21105;-78
2023/03/30 14:18:13;;;;;;;3.05;1.45;;;;;;;;;;5072104;28;20056;-78
2023/03/30 14:20:53;;;;;;;2.63;1.60;;;;;;;;;;5090164;28;20055;-79
2023/03/30 14:23:38;;;;;;;6.78;2.17;;;;;;;;;;5071473;28;20051;-77
2023/03/30 14:26:15;;;;;;;2.05;1.10;;;;;;;;;;5089854;28;20045;-76
2023/03/30 14:28:46;;;;;;;2.15;1.10;;;;;;;;;;5090995;28;20052;-77
2023/03/30 14:31:20;;;;;;;5.60;1.90;;;;;;;;;;5089927;28;20406;-77
2023/03/30 14:33:50;;;;;;;6.07;1.13;;;;;;;;;;5071702;28;20052;-77
2023/03/30 14:36:21;;;;;;;5.05;1.80;;;;;;;;;;5090411;28;20044;-77
2023/03/30 14:38:53;;;;;;;4.80;1.20;;;;;;;;;;5089646;28;20058;-78
2023/03/30 14:41:27;;;;;;;4.28;1.13;;;;;;;;;;5090434;28;20052;-79
2023/03/30 14:44:04;;;;;;;3.88;1.15;;;;;;;;;;5089243;28;20052;-80
2023/03/30 14:46:42;;;;;;;3.88;0.82;;;;;;;;;;5089695;28;20542;-82
2023/03/30 14:49:24;;;;;;;2.97;1.10;;;;;;;;;;5089253;28;20048;-77
2023/03/30 14:52:22;;;;;;;1.48;1.33;;;;;;;;;;5089594;28;20044;-78
2023/03/30 14:54:55;;;;;;;3.75;0.93;;;;;;;;;;5072893;28;20044;-78
2023/03/30 14:57:36;;;;;;;;;;;;;;;;;;5089275;28;20055;-81
2023/03/30 15:00:20;;;;;;;1.95;0.90;;;;;;;;;;5089629;28;19920;-77
2023/03/30 15:02:59;;;;;;;5.35;1.38;;;;;;;;;;5071015;28;20055;-78
2023/03/30 15:05:34;;;;;;;4.95;1.90;;;;;;;;;;5089440;28;20051;-76
2023/03/30 15:08:12;;;;;;;1.88;1.20;;;;;;;;;;5088881;28;20388;-75
2023/03/30 15:10:51;;;;;;;3.22;1.02;;;;;;;;;;5088679;28;20046;-77
2023/03/30 15:13:31;;;;;;;3.35;1.27;;;;;;;;;;5088901;28;20048;-78
2023/03/30 15:16:04;;;;;;;1.90;1.27;;;;;;;;;;5089209;28;20418;-75
2023/03/30 15:18:36;;;;;;;2.30;1.02;;;;;;;;;;5088969;28;20511;-76
2023/03/30 15:21:12;;;;;;;2.25;1.20;;;;;;;;;;5089252;28;20371;-78
2023/03/30 15:23:45;;;;;;;3.17;1.13;;;;;;;;;;5089192;28;20048;-78
2023/03/30 15:26:17;;;;;;;2.67;1.02;;;;;;;;;;5089008;28;20517;-81
2023/03/30 15:28:59;;;;;;;4.72;1.40;;;;;;;;;;5088796;28;20588;-76
2023/03/30 15:31:30;;;;;;;2.78;1.33;;;;;;;;;;5070364;28;20530;-77
2023/03/30 15:34:00;;;;;;;2.50;1.08;;;;;;;;;;5089061;28;20051;-76
2023/03/30 15:36:33;;;;;;;5.43;1.27;;;;;;;;;;5070476;28;20047;-76
2023/03/30 15:39:19;;;;;;;5.25;1.35;;;;;;;;;;5088146;28;20058;-79
2023/03/30 15:42:11;;;;;;;3.40;1.55;;;;;;;;;;5088509;28;20388;-76
2023/03/30 15:44:41;;;;;;;3.15;1.20;;;;;;;;;;5088330;28;20048;-76
2023/03/30 15:47:18;;;;;;;1.35;0.90;;;;;;;;;;5088635;28;20491;-77
2023/03/30 15:49:50;;;;;;;6.05;1.25;;;;;;;;;;5088827;28;20494;-80
2023/03/30 15:52:31;;;;;;;3.33;1.00;;;;;;;;;;5088911;28;20048;-77
2023/03/30 15:55:29;;;;;;;3.95;1.20;;;;;;;;;;5088167;28;20040;-79
2023/03/30 15:58:00;;;;;;;3.80;1.00;;;;;;;;;;5068546;28;20067;-78
2023/03/30 16:00:34;;;;;;;5.57;2.65;;;;;;;;;;5087564;28;20056;-76
2023/03/30 16:03:06;;;;;;;1.98;1.20;;;;;;;;;;5087789;28;20055;-78
2023/03/30 16:05:37;;;;;;;3.08;1.45;;;;;;;;;;5087672;28;20051;-78